Terminal Aerodrome Forecast
Issued by NWS North Platte, NE

Home | Current Version | Previous Version | Text Only | Print | Product List | Glossary Off
Versions: 1 2 3 4 5 6 7 8 9 10 11 12 13 14 15 16 17 18 19 20 21 22 23 24 25 26

245
FTUS43 KLBF 271120
TAFVTN
TAF
KVTN 271120Z 2712/2812 35014G20KT P6SM -RA BKN025 OVC040
      TEMPO 2712/2716 P6SM -RA OVC040
     FM272000 35018G28KT P6SM VCSH OVC025
     FM280100 34012G20KT P6SM -RA OVC012
     FM280800 33012KT P6SM OVC012=

USA.gov is the U.S. government's official web portal to all federal, state and local government web resources and services.